createdAt,value
2023-02-09T00:02:15.049Z,-0.40
2023-02-09T00:05:19.415Z,-0.40
2023-02-09T00:08:22.356Z,-0.40
2023-02-09T00:11:48.289Z,-0.40
2023-02-09T00:14:50.514Z,-0.40
2023-02-09T00:17:53.453Z,-0.50
2023-02-09T00:20:58.972Z,-0.40
2023-02-09T00:24:01.934Z,-0.50
2023-02-09T00:27:04.905Z,-0.50
2023-02-09T00:30:08.839Z,-0.50
2023-02-09T00:33:12.019Z,-0.50
2023-02-09T00:36:16.997Z,-0.50
2023-02-09T00:39:19.947Z,-0.60
2023-02-09T00:42:22.858Z,-0.50
2023-02-09T00:45:26.328Z,-0.50
2023-02-09T00:48:29.971Z,-0.50
2023-02-09T00:51:34.681Z,-0.50
2023-02-09T00:54:37.752Z,-0.50
2023-02-09T00:57:40.717Z,-0.60
2023-02-09T01:00:43.976Z,-0.50
2023-02-09T01:03:47.128Z,-0.50
2023-02-09T01:06:51.428Z,-0.50
2023-02-09T01:09:54.354Z,-0.60
2023-02-09T01:12:57.309Z,-0.60
2023-02-09T01:16:00.251Z,-0.60
2023-02-09T01:19:04.769Z,-0.60
2023-02-09T01:22:09.257Z,-0.60
2023-02-09T01:25:12.445Z,-0.60
2023-02-09T01:28:15.426Z,-0.50
2023-02-09T01:31:24.973Z,-0.50
2023-02-09T01:34:27.979Z,-0.60
2023-02-09T01:37:34.058Z,-0.60
2023-02-09T01:40:36.997Z,-0.60
2023-02-09T01:43:51.298Z,-0.60
2023-02-09T01:46:54.273Z,-0.60
2023-02-09T01:49:57.406Z,-0.60
2023-02-09T01:53:02.407Z,-0.60
2023-02-09T01:56:08.850Z,-0.60
2023-02-09T01:59:12.597Z,-0.60
2023-02-09T02:02:15.973Z,-0.50
2023-02-09T02:05:19.598Z,-0.60
2023-02-09T02:08:29.354Z,-0.50
2023-02-09T02:11:33.013Z,-0.50
2023-02-09T02:14:37.777Z,-0.50
2023-02-09T02:17:59.772Z,-0.50
2023-02-09T02:21:37.304Z,-0.50
2023-02-09T02:25:11.725Z,-0.50
2023-02-09T02:28:33.869Z,-0.50
2023-02-09T02:31:59.829Z,-0.50
2023-02-09T02:35:10.648Z,-0.50
2023-02-09T02:38:21.200Z,-0.50
2023-02-09T02:41:53.545Z,-0.50
2023-02-09T02:45:04.682Z,-0.50
2023-02-09T02:48:17.603Z,-0.50
2023-02-09T02:51:26.971Z,-0.50
2023-02-09T02:54:35.238Z,-0.60
2023-02-09T02:57:41.764Z,-0.70
2023-02-09T03:00:49.204Z,-0.60
2023-02-09T03:03:54.950Z,-0.60
2023-02-09T03:06:57.873Z,-0.60
2023-02-09T03:10:03.055Z,-0.60
2023-02-09T03:13:16.859Z,-0.60
2023-02-09T03:16:27.083Z,-0.60
2023-02-09T03:19:39.686Z,-0.60
2023-02-09T03:22:47.310Z,-0.60
2023-02-09T03:25:53.423Z,-0.60
2023-02-09T03:28:59.758Z,-0.60
2023-02-09T03:32:02.858Z,-0.60
2023-02-09T03:35:09.256Z,-0.50
2023-02-09T03:38:12.156Z,-0.50
2023-02-09T03:41:15.238Z,-0.50
2023-02-09T03:44:30.194Z,-0.50
2023-02-09T03:47:33.136Z,-0.40
2023-02-09T03:50:38.262Z,-0.50
2023-02-09T03:53:41.462Z,-0.60
2023-02-09T03:56:44.519Z,-0.50
2023-02-09T03:59:47.440Z,-0.60
2023-02-09T04:02:50.493Z,-0.60
2023-02-09T04:05:54.791Z,-0.50
2023-02-09T04:08:57.852Z,-0.50
2023-02-09T04:12:00.936Z,-0.40
2023-02-09T04:15:04.499Z,-0.40
2023-02-09T04:18:07.473Z,-0.50
2023-02-09T04:21:11.876Z,-0.50
2023-02-09T04:24:14.811Z,-0.50
2023-02-09T04:27:17.720Z,-0.50
2023-02-09T04:30:20.977Z,-0.60
2023-02-09T04:33:25.410Z,-0.70
2023-02-09T04:36:29.775Z,-0.70
2023-02-09T04:39:32.696Z,-0.70
2023-02-09T04:42:35.665Z,-0.70
2023-02-09T04:45:39.680Z,-0.70
2023-02-09T04:48:42.773Z,-0.60
2023-02-09T04:51:47.045Z,-0.70
2023-02-09T04:54:49.969Z,-0.80
2023-02-09T04:58:10.534Z,-0.80
2023-02-09T05:01:16.367Z,-0.80
2023-02-09T05:04:19.429Z,-0.80
2023-02-09T05:07:26.388Z,-0.80
2023-02-09T05:10:29.293Z,-0.70
2023-02-09T05:13:32.365Z,-0.70
2023-02-09T05:16:36.026Z,-0.70
2023-02-09T05:19:39.990Z,-0.70
2023-02-09T05:22:44.266Z,-0.70
2023-02-09T05:25:48.337Z,-0.60
2023-02-09T05:28:51.286Z,-0.50
2023-02-09T05:31:54.249Z,-0.50
2023-02-09T05:34:57.230Z,-0.40
2023-02-09T05:38:01.592Z,-0.30
2023-02-09T05:41:05.849Z,-0.20
2023-02-09T05:44:09.270Z,-0.10
2023-02-09T05:47:12.904Z,-0.20
2023-02-09T05:50:16.316Z,-0.10
2023-02-09T05:53:20.608Z,-0.10
2023-02-09T05:56:23.581Z,-0.20
2023-02-09T05:59:26.534Z,-0.20
2023-02-09T06:02:29.500Z,-0.20
2023-02-09T06:05:32.497Z,-0.10
2023-02-09T06:08:36.812Z,-0.10
2023-02-09T06:11:39.757Z,-0.10
2023-02-09T06:14:42.697Z,-0.10
2023-02-09T06:17:46.299Z,-0.20
2023-02-09T06:20:49.248Z,-0.30
2023-02-09T06:23:53.536Z,-0.40
2023-02-09T06:26:57.606Z,-0.40
2023-02-09T06:30:00.597Z,-0.50
2023-02-09T06:33:03.641Z,-0.50
2023-02-09T06:36:08.712Z,-0.50
2023-02-09T06:39:13.002Z,-0.50
2023-02-09T06:42:15.930Z,-0.50
2023-02-09T06:45:19.402Z,-0.50
2023-02-09T06:48:22.464Z,-0.50
2023-02-09T06:51:25.628Z,-0.30
2023-02-09T06:54:30.184Z,-0.20
2023-02-09T06:57:34.786Z,0.10
2023-02-09T07:00:37.689Z,0.30
2023-02-09T07:03:40.622Z,0.50
2023-02-09T07:06:43.554Z,0.70
2023-02-09T07:09:47.828Z,0.90
2023-02-09T07:12:50.769Z,1.00
2023-02-09T07:15:57.186Z,1.10
2023-02-09T07:19:00.936Z,1.20
2023-02-09T07:22:03.883Z,1.30
2023-02-09T07:25:08.786Z,1.30
2023-02-09T07:28:11.784Z,1.30
2023-02-09T07:31:16.207Z,1.40
2023-02-09T07:34:19.304Z,1.50
2023-02-09T07:37:22.464Z,1.50
2023-02-09T07:40:27.090Z,1.50
2023-02-09T07:43:30.394Z,1.50
2023-02-09T07:46:33.550Z,1.50
2023-02-09T07:49:36.695Z,1.60
2023-02-09T07:52:39.760Z,1.70
2023-02-09T07:55:44.313Z,1.80
2023-02-09T07:58:47.427Z,1.90
2023-02-09T08:01:51.505Z,1.90
2023-02-09T08:05:01.507Z,1.90
2023-02-09T08:08:04.591Z,1.90
2023-02-09T08:11:08.925Z,2.00
2023-02-09T08:14:15.062Z,1.90
2023-02-09T08:17:21.128Z,1.90
2023-02-09T08:20:26.704Z,1.90
2023-02-09T08:23:33.293Z,2.00
2023-02-09T08:26:37.775Z,2.00
2023-02-09T08:29:40.908Z,2.00
2023-02-09T08:32:44.034Z,2.10
2023-02-09T08:35:48.043Z,2.10
2023-02-09T08:38:51.234Z,2.20
2023-02-09T08:41:55.595Z,2.30
2023-02-09T08:44:58.598Z,2.40
2023-02-09T08:48:01.582Z,2.50
2023-02-09T08:51:05.429Z,2.50
2023-02-09T08:54:08.464Z,2.70
2023-02-09T08:57:12.790Z,2.80
2023-02-09T09:00:16.866Z,2.90
2023-02-09T09:03:19.893Z,3.00
2023-02-09T09:06:22.981Z,3.10
2023-02-09T09:09:26.141Z,3.20
2023-02-09T09:12:31.072Z,3.40
2023-02-09T09:15:35.857Z,3.70
2023-02-09T09:18:38.803Z,3.90
2023-02-09T09:21:41.742Z,4.20
2023-02-09T09:24:44.691Z,4.50
2023-02-09T09:27:48.957Z,4.80
2023-02-09T09:30:51.943Z,4.90
2023-02-09T09:33:56.093Z,5.20
2023-02-09T09:36:59.017Z,5.40
2023-02-09T09:40:01.973Z,5.70
2023-02-09T09:43:10.331Z,5.80
2023-02-09T09:46:18.260Z,5.80
2023-02-09T09:49:25.950Z,5.80
2023-02-09T09:52:33.329Z,5.80
2023-02-09T09:55:39.272Z,5.70
2023-02-09T09:58:45.573Z,5.60
2023-02-09T10:01:50.099Z,5.70
2023-02-09T10:04:53.291Z,5.70
2023-02-09T10:08:00.786Z,5.80
2023-02-09T10:11:06.398Z,5.90
2023-02-09T10:14:11.698Z,5.90
2023-02-09T10:17:14.609Z,5.90
2023-02-09T10:20:18.476Z,5.70
2023-02-09T10:23:25.086Z,5.70
2023-02-09T10:26:30.942Z,5.60
2023-02-09T10:29:36.720Z,5.50
2023-02-09T10:32:44.249Z,5.50
2023-02-09T10:35:51.804Z,5.50
2023-02-09T10:39:03.157Z,5.90
2023-02-09T10:42:19.553Z,6.00
2023-02-09T10:45:27.960Z,5.90
2023-02-09T10:48:41.584Z,6.10
2023-02-09T10:51:44.547Z,6.10
2023-02-09T10:54:50.525Z,6.30
2023-02-09T10:58:04.413Z,6.20
2023-02-09T11:01:18.636Z,6.20
2023-02-09T11:04:24.071Z,6.20
2023-02-09T11:07:34.153Z,6.10
2023-02-09T11:10:42.779Z,5.90
2023-02-09T11:13:45.704Z,5.90
2023-02-09T11:16:55.787Z,5.80
2023-02-09T11:20:28.814Z,6.10
2023-02-09T11:23:46.274Z,6.20
2023-02-09T11:26:54.264Z,6.40
2023-02-09T11:30:12.384Z,6.50
2023-02-09T11:33:22.888Z,6.60
2023-02-09T11:36:40.926Z,6.70
2023-02-09T11:39:50.776Z,6.90
2023-02-09T11:43:00.775Z,7.30
2023-02-09T11:46:06.565Z,7.50
2023-02-09T11:49:18.564Z,7.40
2023-02-09T11:52:29.302Z,7.30
2023-02-09T11:55:38.268Z,7.30
2023-02-09T11:58:49.754Z,7.50
2023-02-09T12:01:57.907Z,7.50
2023-02-09T12:05:03.314Z,7.40
2023-02-09T12:08:26.275Z,7.30
2023-02-09T12:11:40.664Z,7.30
2023-02-09T12:15:01.063Z,7.50
2023-02-09T12:18:07.267Z,7.60
2023-02-09T12:21:11.680Z,7.50
2023-02-09T12:24:33.881Z,7.30
2023-02-09T12:27:38.994Z,6.90
2023-02-09T12:31:02.573Z,6.80
2023-02-09T12:34:15.697Z,6.80
2023-02-09T12:37:28.076Z,6.80
2023-02-09T12:40:39.018Z,6.80
2023-02-09T12:43:44.243Z,6.70
2023-02-09T12:46:54.602Z,6.70
2023-02-09T12:50:04.675Z,6.50
2023-02-09T12:53:48.630Z,6.40
2023-02-09T12:56:51.698Z,6.20
2023-02-09T13:00:34.438Z,6.10
2023-02-09T13:03:44.918Z,6.10
2023-02-09T13:06:52.637Z,6.00
2023-02-09T13:10:01.681Z,5.80
2023-02-09T13:13:07.777Z,5.80
2023-02-09T13:16:40.598Z,5.80
2023-02-09T13:19:56.254Z,5.70
2023-02-09T13:23:14.204Z,5.60
2023-02-09T13:26:21.943Z,5.70
2023-02-09T13:29:27.321Z,5.70
2023-02-09T13:32:42.794Z,5.70
2023-02-09T13:36:00.353Z,5.60
2023-02-09T13:39:07.107Z,5.60
2023-02-09T13:42:20.088Z,5.70
2023-02-09T13:45:24.913Z,5.60
2023-02-09T13:48:30.144Z,5.60
2023-02-09T13:51:33.068Z,5.60
2023-02-09T13:54:36.507Z,5.40
2023-02-09T13:57:43.445Z,5.40
2023-02-09T14:00:49.647Z,5.40
2023-02-09T14:03:58.711Z,5.40
2023-02-09T14:07:05.118Z,5.50
2023-02-09T14:10:14.136Z,5.50
2023-02-09T14:13:22.861Z,5.50
2023-02-09T14:16:28.635Z,5.50
2023-02-09T14:19:33.100Z,5.50
2023-02-09T14:22:38.245Z,5.50
2023-02-09T14:25:42.138Z,5.50
2023-02-09T14:28:50.029Z,5.60
2023-02-09T14:31:55.116Z,5.60
2023-02-09T14:34:58.185Z,5.50
2023-02-09T14:38:03.737Z,5.40
2023-02-09T14:41:25.762Z,5.30
2023-02-09T14:44:31.091Z,5.30
2023-02-09T14:47:42.044Z,5.30
2023-02-09T14:50:44.996Z,5.30
2023-02-09T14:53:47.959Z,5.30
2023-02-09T14:56:51.556Z,5.20
2023-02-09T14:59:57.050Z,5.20
2023-02-09T15:03:00.546Z,5.20
2023-02-09T15:06:05.646Z,5.20
2023-02-09T15:09:08.922Z,5.00
2023-02-09T15:12:21.650Z,5.10
2023-02-09T15:15:27.124Z,5.00
2023-02-09T15:18:30.100Z,5.10
2023-02-09T15:21:33.282Z,5.10
2023-02-09T15:24:36.274Z,5.10
2023-02-09T15:27:43.014Z,5.10
2023-02-09T15:30:47.584Z,5.00
2023-02-09T15:33:50.734Z,5.00
2023-02-09T15:36:53.752Z,5.10
2023-02-09T15:39:59.710Z,5.10
2023-02-09T15:43:20.507Z,5.10
2023-02-09T15:46:42.343Z,5.10
2023-02-09T15:49:45.302Z,5.00
2023-02-09T15:52:48.367Z,5.10
2023-02-09T15:55:51.292Z,5.10
2023-02-09T15:58:57.112Z,5.00
2023-02-09T16:02:01.464Z,5.00
2023-02-09T16:05:04.653Z,5.00
2023-02-09T16:08:09.870Z,4.90
2023-02-09T16:11:19.669Z,5.00
2023-02-09T16:14:25.144Z,5.00
2023-02-09T16:17:29.466Z,5.00
2023-02-09T16:20:32.969Z,5.00
2023-02-09T16:23:36.306Z,4.90
2023-02-09T16:26:39.266Z,4.90
2023-02-09T16:29:42.276Z,4.90
2023-02-09T16:32:47.044Z,4.90
2023-02-09T16:35:54.141Z,4.80
2023-02-09T16:38:57.120Z,4.80
2023-02-09T16:42:00.930Z,4.90
2023-02-09T16:45:03.976Z,4.80
2023-02-09T16:48:14.755Z,4.80
2023-02-09T16:51:17.877Z,4.80
2023-02-09T16:54:20.912Z,4.80
2023-02-09T16:57:25.795Z,4.80
2023-02-09T17:00:31.305Z,4.80
2023-02-09T17:03:37.915Z,4.70
2023-02-09T17:06:41.312Z,4.70
2023-02-09T17:09:44.266Z,4.60
2023-02-09T17:12:47.389Z,4.60
2023-02-09T17:15:52.610Z,4.70
2023-02-09T17:19:00.834Z,4.70
2023-02-09T17:22:09.722Z,4.70
2023-02-09T17:25:16.855Z,4.70
2023-02-09T17:28:20.121Z,4.70
2023-02-09T17:31:24.932Z,4.70
2023-02-09T17:34:29.795Z,4.70
2023-02-09T17:37:32.766Z,4.70
2023-02-09T17:40:37.309Z,4.70
2023-02-09T17:43:40.291Z,4.80
2023-02-09T17:46:43.368Z,4.80
2023-02-09T17:49:47.912Z,4.90
2023-02-09T17:52:51.978Z,4.80
2023-02-09T17:55:56.365Z,4.80
2023-02-09T17:59:02.992Z,4.80
2023-02-09T18:02:14.952Z,4.90
2023-02-09T18:05:21.975Z,4.90
2023-02-09T18:08:25.427Z,4.90
2023-02-09T18:11:56.194Z,4.90
2023-02-09T18:14:59.256Z,4.90
2023-02-09T18:18:02.298Z,4.80
2023-02-09T18:21:07.002Z,4.80
2023-02-09T18:24:11.132Z,4.90
2023-02-09T18:27:18.318Z,4.90
2023-02-09T18:30:22.594Z,4.90
2023-02-09T18:33:25.522Z,4.90
2023-02-09T18:36:29.838Z,4.80
2023-02-09T18:39:35.730Z,4.80
2023-02-09T18:42:38.757Z,4.80
2023-02-09T18:45:41.738Z,4.80
2023-02-09T18:48:44.687Z,4.80
2023-02-09T18:51:49.025Z,4.80
2023-02-09T18:54:52.154Z,4.80
2023-02-09T18:57:55.095Z,4.80
2023-02-09T19:00:58.065Z,4.80
2023-02-09T19:04:01.000Z,4.80
2023-02-09T19:07:06.296Z,4.90
2023-02-09T19:10:11.232Z,4.80
2023-02-09T19:13:14.222Z,4.80
2023-02-09T19:16:17.263Z,4.90
2023-02-09T19:19:20.801Z,4.90
2023-02-09T19:22:25.933Z,4.90
2023-02-09T19:25:30.343Z,4.90
2023-02-09T19:28:35.001Z,4.90
2023-02-09T19:31:38.056Z,4.90
2023-02-09T19:34:43.181Z,4.90
2023-02-09T19:37:50.312Z,4.90
2023-02-09T19:41:08.531Z,4.90
2023-02-09T19:44:13.624Z,4.90
2023-02-09T19:47:16.890Z,4.90
2023-02-09T19:50:19.905Z,4.80
2023-02-09T19:53:24.319Z,4.80
2023-02-09T19:56:28.098Z,4.70
2023-02-09T19:59:31.178Z,4.60
2023-02-09T20:02:34.157Z,4.50
2023-02-09T20:05:40.588Z,4.40
2023-02-09T20:08:44.941Z,4.40
2023-02-09T20:14:56.028Z,4.10
2023-02-09T20:17:59.058Z,4.20
2023-02-09T20:21:02.104Z,4.20
2023-02-09T20:24:09.599Z,4.10
2023-02-09T20:27:13.061Z,4.20
2023-02-09T20:30:16.530Z,4.30
2023-02-09T20:33:19.568Z,4.40
2023-02-09T20:36:24.635Z,4.40
2023-02-09T20:39:29.986Z,4.50
2023-02-09T20:42:50.467Z,4.50
2023-02-09T20:46:10.943Z,4.50
2023-02-09T20:49:16.126Z,4.50
2023-02-09T20:52:19.220Z,4.50
2023-02-09T20:55:23.507Z,4.50
2023-02-09T20:58:26.751Z,4.60
2023-02-09T21:01:29.717Z,4.50
2023-02-09T21:04:32.684Z,4.50
2023-02-09T21:07:35.989Z,4.50
2023-02-09T21:10:40.390Z,4.50
2023-02-09T21:13:43.484Z,4.50
2023-02-09T21:16:46.556Z,4.50
2023-02-09T21:19:49.507Z,4.40
2023-02-09T21:22:52.452Z,4.50
2023-02-09T21:26:02.556Z,4.50
2023-02-09T21:29:05.492Z,4.50
2023-02-09T21:32:08.573Z,4.40
2023-02-09T21:35:11.528Z,4.40
2023-02-09T21:38:14.514Z,4.40
2023-02-09T21:41:38.363Z,4.40
2023-02-09T21:44:41.525Z,4.30
2023-02-09T21:47:44.785Z,4.40
2023-02-09T21:50:47.728Z,4.50
2023-02-09T21:53:51.094Z,4.50
2023-02-09T21:56:55.357Z,4.50
2023-02-09T21:59:59.853Z,4.60
2023-02-09T22:03:02.836Z,4.50
2023-02-09T22:06:07.101Z,4.60
2023-02-09T22:09:10.063Z,4.60
2023-02-09T22:12:14.367Z,4.60
2023-02-09T22:15:19.064Z,4.60
2023-02-09T22:18:22.054Z,4.60
2023-02-09T22:21:24.989Z,4.60
2023-02-09T22:24:28.021Z,4.60
2023-02-09T22:27:32.292Z,4.60
2023-02-09T22:30:35.488Z,4.60
2023-02-09T22:33:38.587Z,4.50
2023-02-09T22:36:41.626Z,4.50
2023-02-09T22:39:46.471Z,4.60
2023-02-09T22:42:50.750Z,4.60
2023-02-09T22:45:56.314Z,4.60
2023-02-09T22:49:01.582Z,4.60
2023-02-09T22:52:04.577Z,4.60
2023-02-09T22:55:07.694Z,4.60
2023-02-09T22:58:12.038Z,4.60
2023-02-09T23:01:15.472Z,4.60
2023-02-09T23:04:18.527Z,4.60
2023-02-09T23:07:21.524Z,4.50
2023-02-09T23:10:24.469Z,4.50
2023-02-09T23:13:28.785Z,4.60
2023-02-09T23:16:32.341Z,4.60
2023-02-09T23:19:35.358Z,4.50
2023-02-09T23:22:38.297Z,4.60
2023-02-09T23:25:41.212Z,4.60
2023-02-09T23:28:45.696Z,4.60
2023-02-09T23:31:48.769Z,4.60
2023-02-09T23:34:51.793Z,4.60
2023-02-09T23:37:54.773Z,4.60
2023-02-09T23:40:57.780Z,4.60
2023-02-09T23:44:02.449Z,4.60
2023-02-09T23:47:05.584Z,4.70
2023-02-09T23:50:08.930Z,4.70
2023-02-09T23:53:13.560Z,4.70
2023-02-09T23:56:18.504Z,4.60
2023-02-09T23:59:22.920Z,4.60
